sensor_id;sensor_type;location;lat;lon;timestamp;pressure;altitude;pressure_sealevel;temperature;humidity
10135;BME280;5107;48.850;8.924;2022-07-11T00:02:26;97535.06;;;15.66;67.39
10135;BME280;5107;48.850;8.924;2022-07-11T00:04:54;97531.56;;;15.66;67.35
10135;BME280;5107;48.850;8.924;2022-07-11T00:07:21;97525.66;;;15.64;67.34
10135;BME280;5107;48.850;8.924;2022-07-11T00:09:48;97523.69;;;15.57;67.91
10135;BME280;5107;48.850;8.924;2022-07-11T00:12:15;97518.59;;;15.56;67.73
10135;BME280;5107;48.850;8.924;2022-07-11T00:14:46;97516.25;;;15.53;67.85
10135;BME280;5107;48.850;8.924;2022-07-11T00:17:13;97512.78;;;15.52;67.85
10135;BME280;5107;48.850;8.924;2022-07-11T00:19:42;97507.81;;;15.49;68.07
10135;BME280;5107;48.850;8.924;2022-07-11T00:22:09;97509.31;;;15.52;68.11
10135;BME280;5107;48.850;8.924;2022-07-11T00:24:36;97508.66;;;15.50;68.15
10135;BME280;5107;48.850;8.924;2022-07-11T00:27:04;97507.81;;;15.49;68.49
10135;BME280;5107;48.850;8.924;2022-07-11T00:29:32;97503.91;;;15.45;68.55
10135;BME280;5107;48.850;8.924;2022-07-11T00:31:59;97508.06;;;15.40;69.27
10135;BME280;5107;48.850;8.924;2022-07-11T00:34:26;97502.50;;;15.35;68.92
10135;BME280;5107;48.850;8.924;2022-07-11T00:36:55;97500.03;;;15.33;69.24
10135;BME280;5107;48.850;8.924;2022-07-11T00:39:22;97504.88;;;15.30;69.22
10135;BME280;5107;48.850;8.924;2022-07-11T00:41:49;97501.41;;;15.29;69.36
10135;BME280;5107;48.850;8.924;2022-07-11T00:44:16;97502.41;;;15.28;69.39
10135;BME280;5107;48.850;8.924;2022-07-11T00:46:43;97498.09;;;15.27;69.55
10135;BME280;5107;48.850;8.924;2022-07-11T00:49:10;97500.28;;;15.24;69.84
10135;BME280;5107;48.850;8.924;2022-07-11T00:51:38;97501.47;;;15.21;69.90
10135;BME280;5107;48.850;8.924;2022-07-11T00:54:07;97500.47;;;15.22;70.08
10135;BME280;5107;48.850;8.924;2022-07-11T00:56:36;97497.19;;;15.20;69.87
10135;BME280;5107;48.850;8.924;2022-07-11T00:59:04;97496.19;;;15.21;70.17
10135;BME280;5107;48.850;8.924;2022-07-11T01:01:32;97491.31;;;15.25;69.89
10135;BME280;5107;48.850;8.924;2022-07-11T01:04:02;97488.03;;;15.23;70.10
10135;BME280;5107;48.850;8.924;2022-07-11T01:06:29;97496.44;;;15.26;70.30
10135;BME280;5107;48.850;8.924;2022-07-11T01:08:56;97498.16;;;15.19;70.10
10135;BME280;5107;48.850;8.924;2022-07-11T01:11:26;97493.94;;;15.10;70.67
10135;BME280;5107;48.850;8.924;2022-07-11T01:13:53;97495.31;;;15.06;71.29
10135;BME280;5107;48.850;8.924;2022-07-11T01:16:22;97493.00;;;15.03;71.01
10135;BME280;5107;48.850;8.924;2022-07-11T01:18:51;97490.34;;;15.03;71.75
10135;BME280;5107;48.850;8.924;2022-07-11T01:21:23;97495.94;;;15.08;71.42
10135;BME280;5107;48.850;8.924;2022-07-11T01:23:53;97491.28;;;15.10;71.30
10135;BME280;5107;48.850;8.924;2022-07-11T01:26:22;97491.13;;;15.11;71.40
10135;BME280;5107;48.850;8.924;2022-07-11T01:28:50;97483.16;;;15.11;71.72
10135;BME280;5107;48.850;8.924;2022-07-11T01:31:18;97482.34;;;15.11;71.81
10135;BME280;5107;48.850;8.924;2022-07-11T01:33:45;97486.63;;;15.12;72.27
10135;BME280;5107;48.850;8.924;2022-07-11T01:36:12;97486.00;;;15.10;72.30
10135;BME280;5107;48.850;8.924;2022-07-11T01:38:40;97480.69;;;15.10;72.45
10135;BME280;5107;48.850;8.924;2022-07-11T01:41:08;97476.56;;;15.07;72.58
10135;BME280;5107;48.850;8.924;2022-07-11T01:43:36;97469.81;;;15.05;72.98
10135;BME280;5107;48.850;8.924;2022-07-11T01:46:03;97480.75;;;15.02;73.08
10135;BME280;5107;48.850;8.924;2022-07-11T01:48:30;97471.53;;;14.98;73.50
10135;BME280;5107;48.850;8.924;2022-07-11T01:50:58;97472.81;;;15.02;73.45
10135;BME280;5107;48.850;8.924;2022-07-11T01:53:25;97465.13;;;15.07;73.44
10135;BME280;5107;48.850;8.924;2022-07-11T01:55:52;97463.13;;;15.09;73.56
10135;BME280;5107;48.850;8.924;2022-07-11T01:58:20;97462.94;;;15.10;73.48
10135;BME280;5107;48.850;8.924;2022-07-11T02:00:47;97468.09;;;15.12;73.64
10135;BME280;5107;48.850;8.924;2022-07-11T02:03:15;97464.44;;;15.13;73.39
10135;BME280;5107;48.850;8.924;2022-07-11T02:05:42;97465.69;;;15.17;73.71
10135;BME280;5107;48.850;8.924;2022-07-11T02:08:09;97464.06;;;15.16;73.67
10135;BME280;5107;48.850;8.924;2022-07-11T02:10:43;97456.91;;;15.16;73.51
10135;BME280;5107;48.850;8.924;2022-07-11T02:13:11;97462.41;;;15.15;73.40
10135;BME280;5107;48.850;8.924;2022-07-11T02:15:42;97464.34;;;15.21;74.17
10135;BME280;5107;48.850;8.924;2022-07-11T02:18:10;97464.53;;;15.19;74.16
10135;BME280;5107;48.850;8.924;2022-07-11T02:20:39;97462.06;;;15.18;74.19
10135;BME280;5107;48.850;8.924;2022-07-11T02:23:07;97456.75;;;15.18;74.54
10135;BME280;5107;48.850;8.924;2022-07-11T02:25:34;97464.34;;;15.21;74.08
10135;BME280;5107;48.850;8.924;2022-07-11T02:28:05;97470.28;;;15.23;74.18
10135;BME280;5107;48.850;8.924;2022-07-11T02:30:34;97468.28;;;15.25;73.97
10135;BME280;5107;48.850;8.924;2022-07-11T02:33:03;97461.81;;;15.28;74.14
10135;BME280;5107;48.850;8.924;2022-07-11T02:35:30;97464.44;;;15.28;73.85
10135;BME280;5107;48.850;8.924;2022-07-11T02:37:59;97467.59;;;15.31;74.16
10135;BME280;5107;48.850;8.924;2022-07-11T02:40:27;97458.78;;;15.31;73.81
10135;BME280;5107;48.850;8.924;2022-07-11T02:42:54;97454.41;;;15.38;73.58
10135;BME280;5107;48.850;8.924;2022-07-11T02:45:22;97461.91;;;15.34;73.61
10135;BME280;5107;48.850;8.924;2022-07-11T02:47:49;97467.50;;;15.39;73.48
10135;BME280;5107;48.850;8.924;2022-07-11T02:50:18;97460.91;;;15.35;73.55
10135;BME280;5107;48.850;8.924;2022-07-11T02:52:45;97463.53;;;15.35;73.83
10135;BME280;5107;48.850;8.924;2022-07-11T02:55:13;97464.84;;;15.39;73.92
10135;BME280;5107;48.850;8.924;2022-07-11T02:57:41;97469.13;;;15.40;73.58
10135;BME280;5107;48.850;8.924;2022-07-11T03:00:11;97472.97;;;15.38;73.91
10135;BME280;5107;48.850;8.924;2022-07-11T03:02:39;97475.06;;;15.42;73.65
10135;BME280;5107;48.850;8.924;2022-07-11T03:05:07;97469.78;;;15.42;73.63
10135;BME280;5107;48.850;8.924;2022-07-11T03:07:36;97471.59;;;15.42;74.00
10135;BME280;5107;48.850;8.924;2022-07-11T03:10:04;97470.94;;;15.40;73.56
10135;BME280;5107;48.850;8.924;2022-07-11T03:12:32;97468.84;;;15.35;73.81
10135;BME280;5107;48.850;8.924;2022-07-11T03:14:59;97464.28;;;15.29;74.27
10135;BME280;5107;48.850;8.924;2022-07-11T03:17:26;97459.81;;;15.30;74.33
10135;BME280;5107;48.850;8.924;2022-07-11T03:19:53;97468.28;;;15.25;74.66
10135;BME280;5107;48.850;8.924;2022-07-11T03:22:20;97454.56;;;15.22;74.84
10135;BME280;5107;48.850;8.924;2022-07-11T03:24:50;97462.06;;;15.18;75.25
10135;BME280;5107;48.850;8.924;2022-07-11T03:27:17;97462.69;;;15.20;75.15
10135;BME280;5107;48.850;8.924;2022-07-11T03:29:44;97465.34;;;15.20;75.08
10135;BME280;5107;48.850;8.924;2022-07-11T03:32:12;97455.56;;;15.21;75.42
10135;BME280;5107;48.850;8.924;2022-07-11T03:34:39;97470.75;;;15.27;75.20
10135;BME280;5107;48.850;8.924;2022-07-11T03:37:06;97466.44;;;15.26;74.99
10135;BME280;5107;48.850;8.924;2022-07-11T03:39:35;97468.19;;;15.33;74.96
10135;BME280;5107;48.850;8.924;2022-07-11T03:42:04;97462.81;;;15.41;74.88
10135;BME280;5107;48.850;8.924;2022-07-11T03:44:31;97469.78;;;15.42;74.51
10135;BME280;5107;48.850;8.924;2022-07-11T03:46:58;97468.41;;;15.46;74.26
10135;BME280;5107;48.850;8.924;2022-07-11T03:49:25;97462.13;;;15.47;74.36
10135;BME280;5107;48.850;8.924;2022-07-11T03:51:53;97466.72;;;15.53;74.23
10135;BME280;5107;48.850;8.924;2022-07-11T03:54:20;97461.22;;;15.55;73.74
10135;BME280;5107;48.850;8.924;2022-07-11T03:56:47;97465.75;;;15.46;74.29
10135;BME280;5107;48.850;8.924;2022-07-11T03:59:16;97462.72;;;15.49;74.37
10135;BME280;5107;48.850;8.924;2022-07-11T04:01:43;97454.41;;;15.52;74.27
10135;BME280;5107;48.850;8.924;2022-07-11T04:04:10;97468.81;;;15.58;74.09
10135;BME280;5107;48.850;8.924;2022-07-11T04:06:37;97459.19;;;15.57;74.32
10135;BME280;5107;48.850;8.924;2022-07-11T04:09:04;97472.84;;;15.54;74.22
10135;BME280;5107;48.850;8.924;2022-07-11T04:11:31;97464.63;;;15.64;74.20
10135;BME280;5107;48.850;8.924;2022-07-11T04:13:59;97468.28;;;15.63;74.31
10135;BME280;5107;48.850;8.924;2022-07-11T04:18:54;97466.97;;;15.59;74.12
10135;BME280;5107;48.850;8.924;2022-07-11T04:21:21;97460.41;;;15.54;74.20
10135;BME280;5107;48.850;8.924;2022-07-11T04:23:48;97463.50;;;15.58;74.51
10135;BME280;5107;48.850;8.924;2022-07-11T04:26:15;97465.81;;;15.61;73.93
10135;BME280;5107;48.850;8.924;2022-07-11T04:28:43;97466.34;;;15.71;74.13
10135;BME280;5107;48.850;8.924;2022-07-11T04:31:10;97461.50;;;15.75;73.61
10135;BME280;5107;48.850;8.924;2022-07-11T04:33:37;97464.97;;;15.75;73.53
10135;BME280;5107;48.850;8.924;2022-07-11T04:36:06;97459.22;;;15.86;73.60
10135;BME280;5107;48.850;8.924;2022-07-11T04:38:34;97454.53;;;15.88;73.05
10135;BME280;5107;48.850;8.924;2022-07-11T04:41:01;97451.63;;;15.98;72.94
10135;BME280;5107;48.850;8.924;2022-07-11T04:43:28;97462.09;;;16.21;72.49
10135;BME280;5107;48.850;8.924;2022-07-11T04:45:55;97468.38;;;16.35;72.17
10135;BME280;5107;48.850;8.924;2022-07-11T04:48:22;97465.59;;;16.43;71.47
10135;BME280;5107;48.850;8.924;2022-07-11T04:50:49;97462.50;;;16.39;71.42
10135;BME280;5107;48.850;8.924;2022-07-11T04:53:18;97456.66;;;16.29;71.60
10135;BME280;5107;48.850;8.924;2022-07-11T04:55:45;97460.78;;;16.31;72.07
10135;BME280;5107;48.850;8.924;2022-07-11T04:58:12;97466.88;;;16.47;71.32
10135;BME280;5107;48.850;8.924;2022-07-11T05:00:39;97464.22;;;16.47;71.12
10135;BME280;5107;48.850;8.924;2022-07-11T05:03:06;97460.97;;;16.66;70.87
10135;BME280;5107;48.850;8.924;2022-07-11T05:05:33;97469.47;;;16.97;71.69
10135;BME280;5107;48.850;8.924;2022-07-11T05:08:00;97468.09;;;17.08;70.00
10135;BME280;5107;48.850;8.924;2022-07-11T05:10:29;97470.72;;;17.23;70.55
10135;BME280;5107;48.850;8.924;2022-07-11T05:12:59;97469.94;;;17.29;69.09
10135;BME280;5107;48.850;8.924;2022-07-11T05:15:26;97480.38;;;17.30;69.19
10135;BME280;5107;48.850;8.924;2022-07-11T05:17:53;97475.16;;;17.43;69.39
10135;BME280;5107;48.850;8.924;2022-07-11T05:20:20;97480.81;;;17.34;67.94
10135;BME280;5107;48.850;8.924;2022-07-11T05:22:48;97475.66;;;17.32;67.97
10135;BME280;5107;48.850;8.924;2022-07-11T05:25:15;97481.28;;;17.16;68.58
10135;BME280;5107;48.850;8.924;2022-07-11T05:27:43;97477.50;;;17.04;68.99
10135;BME280;5107;48.850;8.924;2022-07-11T05:30:11;97470.34;;;16.83;69.24
10135;BME280;5107;48.850;8.924;2022-07-11T05:32:38;97475.88;;;16.82;69.59
10135;BME280;5107;48.850;8.924;2022-07-11T05:35:05;97482.91;;;16.89;71.47
10135;BME280;5107;48.850;8.924;2022-07-11T05:37:33;97485.44;;;16.97;70.44
10135;BME280;5107;48.850;8.924;2022-07-11T05:40:00;97484.56;;;17.18;69.38
10135;BME280;5107;48.850;8.924;2022-07-11T05:42:27;97487.97;;;17.33;70.49
10135;BME280;5107;48.850;8.924;2022-07-11T05:44:56;97496.84;;;17.68;69.40
10135;BME280;5107;48.850;8.924;2022-07-11T05:47:23;97492.34;;;17.69;66.48
10135;BME280;5107;48.850;8.924;2022-07-11T05:49:50;97500.28;;;17.90;66.99
10135;BME280;5107;48.850;8.924;2022-07-11T05:52:17;97493.66;;;18.14;67.04
10135;BME280;5107;48.850;8.924;2022-07-11T05:54:44;97490.63;;;18.30;66.74
10135;BME280;5107;48.850;8.924;2022-07-11T05:57:11;97495.31;;;18.22;64.16
10135;BME280;5107;48.850;8.924;2022-07-11T05:59:38;97492.78;;;18.07;66.28
10135;BME280;5107;48.850;8.924;2022-07-11T06:02:08;97492.53;;;18.02;64.96
10135;BME280;5107;48.850;8.924;2022-07-11T06:04:35;97491.00;;;18.20;66.09
10135;BME280;5107;48.850;8.924;2022-07-11T06:07:03;97489.72;;;18.10;64.72
10135;BME280;5107;48.850;8.924;2022-07-11T06:09:30;97493.06;;;18.25;66.39
10135;BME280;5107;48.850;8.924;2022-07-11T06:11:56;97499.50;;;18.50;66.53
10135;BME280;5107;48.850;8.924;2022-07-11T06:14:23;97500.00;;;18.67;65.28
10135;BME280;5107;48.850;8.924;2022-07-11T06:16:51;97499.41;;;18.72;64.43
10135;BME280;5107;48.850;8.924;2022-07-11T06:19:19;97500.88;;;18.33;63.82
10135;BME280;5107;48.850;8.924;2022-07-11T06:21:46;97500.09;;;18.33;64.24
10135;BME280;5107;48.850;8.924;2022-07-11T06:24:14;97492.50;;;18.43;64.83
10135;BME280;5107;48.850;8.924;2022-07-11T06:26:41;97497.28;;;18.54;64.30
10135;BME280;5107;48.850;8.924;2022-07-11T06:29:08;97498.16;;;18.68;63.26
10135;BME280;5107;48.850;8.924;2022-07-11T06:31:35;97494.53;;;18.82;62.11
10135;BME280;5107;48.850;8.924;2022-07-11T06:34:02;97495.59;;;19.07;61.41
10135;BME280;5107;48.850;8.924;2022-07-11T06:36:31;97497.63;;;19.05;62.50
10135;BME280;5107;48.850;8.924;2022-07-11T06:38:58;97494.34;;;18.90;61.37
10135;BME280;5107;48.850;8.924;2022-07-11T06:41:25;97503.16;;;18.97;62.86
10135;BME280;5107;48.850;8.924;2022-07-11T06:43:52;97499.69;;;19.29;62.20
10135;BME280;5107;48.850;8.924;2022-07-11T06:46:20;97499.50;;;19.51;60.16
10135;BME280;5107;48.850;8.924;2022-07-11T06:48:50;97498.66;;;19.37;60.30
10135;BME280;5107;48.850;8.924;2022-07-11T06:51:17;97492.56;;;19.50;60.04
10135;BME280;5107;48.850;8.924;2022-07-11T06:53:45;97495.78;;;19.78;58.71
10135;BME280;5107;48.850;8.924;2022-07-11T06:56:13;97492.94;;;19.66;59.49
10135;BME280;5107;48.850;8.924;2022-07-11T06:58:40;97500.75;;;19.75;60.05
10135;BME280;5107;48.850;8.924;2022-07-11T07:01:07;97498.69;;;19.83;58.04
10135;BME280;5107;48.850;8.924;2022-07-11T07:03:35;97497.81;;;19.96;58.11
10135;BME280;5107;48.850;8.924;2022-07-11T07:06:03;97498.84;;;19.88;58.47
10135;BME280;5107;48.850;8.924;2022-07-11T07:08:32;97496.78;;;19.97;57.96
10135;BME280;5107;48.850;8.924;2022-07-11T07:11:00;97495.25;;;20.21;57.69
10135;BME280;5107;48.850;8.924;2022-07-11T07:13:27;97502.13;;;20.61;57.37
10135;BME280;5107;48.850;8.924;2022-07-11T07:15:55;97495.56;;;19.86;57.81
10135;BME280;5107;48.850;8.924;2022-07-11T07:18:23;97494.41;;;20.27;56.72
10135;BME280;5107;48.850;8.924;2022-07-11T07:20:51;97493.63;;;20.20;57.07
10135;BME280;5107;48.850;8.924;2022-07-11T07:23:18;97489.22;;;19.81;57.69
10135;BME280;5107;48.850;8.924;2022-07-11T07:25:46;97495.41;;;19.75;58.37
10135;BME280;5107;48.850;8.924;2022-07-11T07:28:14;97486.72;;;19.86;57.40
10135;BME280;5107;48.850;8.924;2022-07-11T07:30:42;97499.63;;;20.15;56.65
10135;BME280;5107;48.850;8.924;2022-07-11T07:33:11;97497.88;;;20.85;55.59
10135;BME280;5107;48.850;8.924;2022-07-11T07:35:39;97493.19;;;21.62;53.90
10135;BME280;5107;48.850;8.924;2022-07-11T07:38:07;97500.59;;;22.09;51.16
10135;BME280;5107;48.850;8.924;2022-07-11T07:40:34;97493.00;;;22.24;51.30
10135;BME280;5107;48.850;8.924;2022-07-11T07:43:01;97488.19;;;22.45;49.98
10135;BME280;5107;48.850;8.924;2022-07-11T07:45:30;97494.09;;;21.31;51.97
10135;BME280;5107;48.850;8.924;2022-07-11T07:47:59;97494.56;;;21.46;52.96
10135;BME280;5107;48.850;8.924;2022-07-11T07:50:26;97488.97;;;21.72;51.17
10135;BME280;5107;48.850;8.924;2022-07-11T07:52:53;97482.84;;;21.90;51.71
10135;BME280;5107;48.850;8.924;2022-07-11T07:55:20;97491.31;;;21.87;50.60
10135;BME280;5107;48.850;8.924;2022-07-11T07:57:47;97486.06;;;21.55;51.44
10135;BME280;5107;48.850;8.924;2022-07-11T08:00:15;97485.34;;;21.10;53.68
10135;BME280;5107;48.850;8.924;2022-07-11T08:03:05;97482.28;;;21.07;53.15
10135;BME280;5107;48.850;8.924;2022-07-11T08:05:33;97481.22;;;20.83;53.34
10135;BME280;5107;48.850;8.924;2022-07-11T08:08:00;97487.03;;;20.22;54.21
10135;BME280;5107;48.850;8.924;2022-07-11T08:10:29;97488.75;;;20.61;53.96
10135;BME280;5107;48.850;8.924;2022-07-11T08:12:56;97488.59;;;21.19;52.12
10135;BME280;5107;48.850;8.924;2022-07-11T08:15:23;97489.66;;;21.43;51.43
10135;BME280;5107;48.850;8.924;2022-07-11T08:17:50;97486.03;;;21.80;50.10
10135;BME280;5107;48.850;8.924;2022-07-11T08:20:20;97489.09;;;21.84;49.80
10135;BME280;5107;48.850;8.924;2022-07-11T08:22:47;97480.13;;;22.15;51.31
10135;BME280;5107;48.850;8.924;2022-07-11T08:25:14;97475.38;;;22.47;49.46
10135;BME280;5107;48.850;8.924;2022-07-11T08:27:41;97476.00;;;23.08;47.51
10135;BME280;5107;48.850;8.924;2022-07-11T08:30:10;97474.84;;;23.28;44.24
10135;BME280;5107;48.850;8.924;2022-07-11T08:32:41;97472.47;;;23.61;45.98
10135;BME280;5107;48.850;8.924;2022-07-11T08:35:09;97473.00;;;24.33;43.37
10135;BME280;5107;48.850;8.924;2022-07-11T08:37:38;97475.91;;;24.72;43.51
10135;BME280;5107;48.850;8.924;2022-07-11T08:40:07;97482.06;;;24.84;43.61
10135;BME280;5107;48.850;8.924;2022-07-11T08:42:40;97473.00;;;24.62;43.11
10135;BME280;5107;48.850;8.924;2022-07-11T08:45:10;97471.38;;;24.32;44.17
10135;BME280;5107;48.850;8.924;2022-07-11T08:47:38;97471.00;;;23.24;45.04
10135;BME280;5107;48.850;8.924;2022-07-11T08:50:07;97464.72;;;22.58;46.29
10135;BME280;5107;48.850;8.924;2022-07-11T08:52:34;97473.66;;;21.79;49.23
10135;BME280;5107;48.850;8.924;2022-07-11T08:55:05;97465.66;;;21.98;49.52
10135;BME280;5107;48.850;8.924;2022-07-11T08:57:33;97470.22;;;21.72;48.16
10135;BME280;5107;48.850;8.924;2022-07-11T09:00:04;97473.00;;;21.84;46.08
10135;BME280;5107;48.850;8.924;2022-07-11T09:02:33;97468.38;;;21.73;48.80
10135;BME280;5107;48.850;8.924;2022-07-11T09:05:00;97465.31;;;21.87;45.94
10135;BME280;5107;48.850;8.924;2022-07-11T09:07:31;97464.09;;;22.08;46.35
10135;BME280;5107;48.850;8.924;2022-07-11T09:09:59;97471.72;;;21.86;46.35
10135;BME280;5107;48.850;8.924;2022-07-11T09:12:27;97465.00;;;21.77;45.45
10135;BME280;5107;48.850;8.924;2022-07-11T09:14:54;97467.34;;;21.92;45.94
10135;BME280;5107;48.850;8.924;2022-07-11T09:17:26;97471.09;;;22.27;46.74
10135;BME280;5107;48.850;8.924;2022-07-11T09:19:54;97469.88;;;22.90;45.51
10135;BME280;5107;48.850;8.924;2022-07-11T09:22:21;97469.31;;;22.99;45.92
10135;BME280;5107;48.850;8.924;2022-07-11T09:25:09;97477.50;;;23.04;45.79
10135;BME280;5107;48.850;8.924;2022-07-11T09:27:52;97478.16;;;22.70;44.69
10135;BME280;5107;48.850;8.924;2022-07-11T09:30:24;97478.81;;;22.54;45.19
10135;BME280;5107;48.850;8.924;2022-07-11T09:32:58;97480.41;;;22.73;44.61
10135;BME280;5107;48.850;8.924;2022-07-11T09:35:28;97472.22;;;22.98;45.49
10135;BME280;5107;48.850;8.924;2022-07-11T09:37:56;97463.41;;;23.09;45.58
10135;BME280;5107;48.850;8.924;2022-07-11T09:40:23;97475.34;;;23.25;46.55
10135;BME280;5107;48.850;8.924;2022-07-11T09:42:55;97474.13;;;23.51;45.10
10135;BME280;5107;48.850;8.924;2022-07-11T09:45:25;97462.38;;;23.45;43.75
10135;BME280;5107;48.850;8.924;2022-07-11T09:47:54;97465.25;;;23.08;44.60
10135;BME280;5107;48.850;8.924;2022-07-11T09:50:22;97469.59;;;23.10;46.50
10135;BME280;5107;48.850;8.924;2022-07-11T09:53:03;97469.09;;;23.13;45.01
10135;BME280;5107;48.850;8.924;2022-07-11T09:55:31;97479.88;;;23.24;46.29
10135;BME280;5107;48.850;8.924;2022-07-11T09:58:03;97478.66;;;23.50;45.28
10135;BME280;5107;48.850;8.924;2022-07-11T10:00:32;97469.78;;;23.61;43.75
10135;BME280;5107;48.850;8.924;2022-07-11T10:02:59;97484.34;;;23.42;46.15
10135;BME280;5107;48.850;8.924;2022-07-11T10:05:28;97474.59;;;23.59;44.19
10135;BME280;5107;48.850;8.924;2022-07-11T10:07:56;97482.66;;;23.59;44.69
10135;BME280;5107;48.850;8.924;2022-07-11T10:10:24;97476.94;;;23.67;43.99
10135;BME280;5107;48.850;8.924;2022-07-11T10:12:53;97477.00;;;22.84;45.34
10135;BME280;5107;48.850;8.924;2022-07-11T10:15:27;97472.91;;;23.35;46.59
10135;BME280;5107;48.850;8.924;2022-07-11T10:18:04;97476.09;;;23.78;44.13
10135;BME280;5107;48.850;8.924;2022-07-11T10:20:39;97482.84;;;23.34;45.93
10135;BME280;5107;48.850;8.924;2022-07-11T10:23:18;97474.09;;;23.62;44.54
10135;BME280;5107;48.850;8.924;2022-07-11T10:25:52;97477.94;;;23.43;46.19
10135;BME280;5107;48.850;8.924;2022-07-11T10:28:32;97481.63;;;24.47;46.89
10135;BME280;5107;48.850;8.924;2022-07-11T10:31:01;97464.81;;;24.28;44.61
10135;BME280;5107;48.850;8.924;2022-07-11T10:33:29;97479.09;;;24.69;43.97
10135;BME280;5107;48.850;8.924;2022-07-11T10:35:57;97470.94;;;24.92;44.75
10135;BME280;5107;48.850;8.924;2022-07-11T10:38:26;97473.31;;;25.05;44.19
10135;BME280;5107;48.850;8.924;2022-07-11T10:40:54;97475.13;;;25.16;42.90
10135;BME280;5107;48.850;8.924;2022-07-11T10:43:37;97470.91;;;24.64;42.86
10135;BME280;5107;48.850;8.924;2022-07-11T10:46:09;97466.41;;;25.09;41.47
10135;BME280;5107;48.850;8.924;2022-07-11T10:48:58;97475.38;;;25.82;40.54
10135;BME280;5107;48.850;8.924;2022-07-11T10:51:35;97465.78;;;25.69;40.92
10135;BME280;5107;48.850;8.924;2022-07-11T10:54:15;97476.13;;;25.44;41.50
10135;BME280;5107;48.850;8.924;2022-07-11T10:57:08;97470.81;;;25.49;41.34
10135;BME280;5107;48.850;8.924;2022-07-11T10:59:56;97472.50;;;25.21;41.65
10135;BME280;5107;48.850;8.924;2022-07-11T11:02:25;97469.31;;;24.91;42.39
10135;BME280;5107;48.850;8.924;2022-07-11T11:04:53;97468.19;;;24.75;41.78
10135;BME280;5107;48.850;8.924;2022-07-11T11:07:36;97466.19;;;24.19;42.32
10135;BME280;5107;48.850;8.924;2022-07-11T11:13:19;97478.91;;;23.72;45.55
10135;BME280;5107;48.850;8.924;2022-07-11T11:15:49;97467.34;;;23.60;44.96
10135;BME280;5107;48.850;8.924;2022-07-11T11:18:41;97471.19;;;23.64;44.93
10135;BME280;5107;48.850;8.924;2022-07-11T11:21:22;97465.00;;;23.63;46.08
10135;BME280;5107;48.850;8.924;2022-07-11T11:24:06;97463.69;;;24.01;47.05
10135;BME280;5107;48.850;8.924;2022-07-11T11:26:57;97461.56;;;24.54;44.50
10135;BME280;5107;48.850;8.924;2022-07-11T11:29:27;97460.81;;;24.99;45.23
10135;BME280;5107;48.850;8.924;2022-07-11T11:31:57;97461.91;;;25.31;42.02
10135;BME280;5107;48.850;8.924;2022-07-11T11:34:27;97465.75;;;25.19;41.73
10135;BME280;5107;48.850;8.924;2022-07-11T11:37:00;97457.31;;;25.15;42.94
10135;BME280;5107;48.850;8.924;2022-07-11T11:39:32;97450.66;;;24.33;43.10
10135;BME280;5107;48.850;8.924;2022-07-11T11:42:18;97447.75;;;24.91;43.89
10135;BME280;5107;48.850;8.924;2022-07-11T11:44:54;97446.94;;;25.07;42.45
10135;BME280;5107;48.850;8.924;2022-07-11T11:47:23;97442.97;;;25.26;42.80
10135;BME280;5107;48.850;8.924;2022-07-11T11:49:52;97450.38;;;25.53;42.25
10135;BME280;5107;48.850;8.924;2022-07-11T11:52:19;97445.50;;;25.16;42.57
10135;BME280;5107;48.850;8.924;2022-07-11T11:54:54;97448.44;;;25.31;44.00
10135;BME280;5107;48.850;8.924;2022-07-11T11:57:24;97447.28;;;25.44;43.21
10135;BME280;5107;48.850;8.924;2022-07-11T11:59:52;97446.63;;;25.37;41.18
10135;BME280;5107;48.850;8.924;2022-07-11T12:02:29;97440.34;;;25.31;41.53
10135;BME280;5107;48.850;8.924;2022-07-11T12:04:58;97444.50;;;25.73;41.48
10135;BME280;5107;48.850;8.924;2022-07-11T12:07:28;97447.59;;;26.03;41.30
10135;BME280;5107;48.850;8.924;2022-07-11T12:09:57;97445.66;;;25.98;40.12
10135;BME280;5107;48.850;8.924;2022-07-11T12:12:30;97447.09;;;25.84;40.83
10135;BME280;5107;48.850;8.924;2022-07-11T12:15:29;97447.59;;;25.81;40.00
10135;BME280;5107;48.850;8.924;2022-07-11T12:17:59;97441.75;;;25.67;40.52
10135;BME280;5107;48.850;8.924;2022-07-11T12:20:43;97435.69;;;24.82;41.87
10135;BME280;5107;48.850;8.924;2022-07-11T12:23:15;97444.75;;;24.47;42.92
10135;BME280;5107;48.850;8.924;2022-07-11T12:25:43;97449.16;;;24.25;43.93
10135;BME280;5107;48.850;8.924;2022-07-11T12:28:13;97442.44;;;24.39;44.56
10135;BME280;5107;48.850;8.924;2022-07-11T12:30:40;97444.00;;;24.35;43.90
10135;BME280;5107;48.850;8.924;2022-07-11T12:33:09;97444.50;;;24.09;45.61
10135;BME280;5107;48.850;8.924;2022-07-11T12:35:53;97446.16;;;23.87;44.67
10135;BME280;5107;48.850;8.924;2022-07-11T12:38:21;97436.34;;;23.80;45.38
10135;BME280;5107;48.850;8.924;2022-07-11T12:41:02;97438.94;;;23.75;45.08
10135;BME280;5107;48.850;8.924;2022-07-11T12:43:41;97433.38;;;23.94;46.02
10135;BME280;5107;48.850;8.924;2022-07-11T12:46:29;97435.16;;;23.88;45.29
10135;BME280;5107;48.850;8.924;2022-07-11T12:48:57;97431.41;;;24.01;45.14
10135;BME280;5107;48.850;8.924;2022-07-11T12:51:33;97429.34;;;24.19;44.66
10135;BME280;5107;48.850;8.924;2022-07-11T12:54:06;97427.63;;;24.25;44.87
10135;BME280;5107;48.850;8.924;2022-07-11T12:56:35;97423.59;;;23.88;44.88
10135;BME280;5107;48.850;8.924;2022-07-11T12:59:04;97423.75;;;23.58;45.19
10135;BME280;5107;48.850;8.924;2022-07-11T13:01:32;97428.41;;;23.62;45.50
10135;BME280;5107;48.850;8.924;2022-07-11T13:04:00;97427.91;;;23.77;45.78
10135;BME280;5107;48.850;8.924;2022-07-11T13:06:27;97425.06;;;24.07;44.97
10135;BME280;5107;48.850;8.924;2022-07-11T13:09:14;97418.25;;;24.28;44.56
10135;BME280;5107;48.850;8.924;2022-07-11T13:11:42;97424.38;;;24.51;45.30
10135;BME280;5107;48.850;8.924;2022-07-11T13:14:09;97428.50;;;24.42;44.19
10135;BME280;5107;48.850;8.924;2022-07-11T13:16:51;97418.16;;;24.11;44.94
10135;BME280;5107;48.850;8.924;2022-07-11T13:19:18;97424.25;;;24.06;44.90
10135;BME280;5107;48.850;8.924;2022-07-11T13:21:45;97430.50;;;23.60;45.85
10135;BME280;5107;48.850;8.924;2022-07-11T13:24:14;97428.84;;;23.48;47.14
10135;BME280;5107;48.850;8.924;2022-07-11T13:26:41;97422.81;;;23.64;46.39
10135;BME280;5107;48.850;8.924;2022-07-11T13:29:08;97426.66;;;23.56;46.31